Time;durP1;ratioP1;P1;durP2;ratioP2;P2;SDS_P1;SDS_P2;PMS_P1;PMS_P2;Temp;Humidity;BMP_temperature;BMP_pressure;BME280_temperature;BME280_humidity;BME280_pressure;Samples;Min_cycle;Max_cycle;Signal;HPM_P1;HPM_P2
2021/12/13 00:01:17;;;;;;;;;;;10.20;99.90;;;;;;5028470;28;20073;-31
2021/12/13 00:04:02;;;;;;;32.10;16.20;;;10.00;99.90;;;;;;5026689;28;19968;-31
2021/12/13 00:06:43;;;;;;;25.33;15.63;;;10.10;99.90;;;;;;5014079;28;20038;-31
2021/12/13 00:09:17;;;;;;;26.63;16.00;;;10.10;99.90;;;;;;5026595;28;20068;-31
2021/12/13 00:11:47;;;;;;;24.40;15.87;;;10.10;99.90;;;;;;5025774;28;20072;-31
2021/12/13 00:14:20;;;;;;;31.87;17.17;;;10.10;99.90;;;;;;5026606;28;20073;-31
2021/12/13 00:17:01;;;;;;;27.60;16.37;;;10.10;99.90;;;;;;5012321;28;20057;-31
2021/12/13 00:19:36;;;;;;;21.23;14.90;;;10.10;99.90;;;;;;5026260;28;20053;-31
2021/12/13 00:22:07;;;;;;;24.87;14.23;;;10.10;99.90;;;;;;5027609;28;20118;-31
2021/12/13 00:24:39;;;;;;;30.02;15.80;;;10.10;99.90;;;;;;5026461;28;20088;-31
2021/12/13 00:27:26;;;;;;;28.83;14.50;;;10.10;99.90;;;;;;5011762;28;20041;-31
2021/12/13 00:30:13;;;;;;;26.03;14.60;;;10.10;99.90;;;;;;5027349;28;20056;-31
2021/12/13 00:33:14;;;;;;;25.60;14.17;;;10.10;99.90;;;;;;5026826;28;20042;-32
2021/12/13 00:35:55;;;;;;;28.23;14.40;;;10.10;99.90;;;;;;5026479;28;20449;-31
2021/12/13 00:38:25;;;;;;;23.70;14.80;;;10.10;99.90;;;;;;4997924;28;20242;-31
2021/12/13 00:41:09;;;;;;;27.13;15.60;;;10.10;99.90;;;;;;5007894;28;20049;-31
2021/12/13 00:43:51;;;;;;;29.73;16.97;;;10.10;99.90;;;;;;5008833;28;20045;-31
2021/12/13 00:46:18;;;;;;;33.40;17.20;;;10.00;99.90;;;;;;4982428;28;20038;-31
2021/12/13 00:48:48;;;;;;;31.67;18.17;;;10.10;99.90;;;;;;5004149;28;20394;-30
2021/12/13 00:51:29;;;;;;;40.70;20.43;;;10.10;99.90;;;;;;5019092;28;20050;-31
2021/12/13 00:54:01;;;;;;;41.13;20.92;;;10.10;99.90;;;;;;5028257;28;20771;-31
2021/12/13 00:57:02;;;;;;;44.50;22.20;;;10.10;99.90;;;;;;5016900;28;20049;-30
2021/12/13 00:59:37;;;;;;;42.73;21.90;;;10.10;99.90;;;;;;5029341;28;20408;-31
2021/12/13 01:02:17;;;;;;;40.83;21.63;;;10.10;99.90;;;;;;5030277;28;20121;-31
2021/12/13 01:05:15;;;;;;;50.20;22.63;;;10.10;99.90;;;;;;5029472;28;20086;-31
2021/12/13 01:08:14;;;;;;;44.47;21.53;;;10.10;99.90;;;;;;5014434;28;21147;-31
2021/12/13 01:10:40;;;;;;;40.90;21.03;;;10.10;99.90;;;;;;5030292;28;20481;-31
2021/12/13 01:13:26;;;;;;;43.63;21.07;;;10.10;99.90;;;;;;5029380;28;20496;-31
2021/12/13 01:16:56;;;;;;;38.23;21.13;;;10.10;99.90;;;;;;5030248;28;20056;-30
2021/12/13 01:22:00;;;;;;;38.97;19.73;;;10.10;99.90;;;;;;5030286;28;20135;-31
2021/12/13 01:27:34;;;;;;;32.53;19.10;;;10.10;99.90;;;;;;4993450;28;20433;-30
2021/12/13 01:30:01;;;;;;;34.53;17.83;;;10.10;99.90;;;;;;5029834;28;20620;-31
2021/12/13 01:32:40;;;;;;;30.17;16.63;;;10.10;99.90;;;;;;5029428;28;20046;-31
2021/12/13 01:35:11;;;;;;;29.93;17.07;;;10.10;99.90;;;;;;5028391;28;20104;-31
2021/12/13 01:37:37;;;;;;;26.95;16.23;;;10.10;99.90;;;;;;5004718;28;20294;-31
2021/12/13 01:40:08;;;;;;;25.63;15.00;;;10.10;99.90;;;;;;5010227;28;20053;-31
2021/12/13 01:42:34;;;;;;;26.83;14.65;;;10.10;99.90;;;;;;5009256;28;20048;-31
2021/12/13 01:45:07;;;;;;;25.87;14.80;;;10.10;99.90;;;;;;5009562;28;20042;-31
2021/12/13 01:47:44;;;;;;;23.30;14.67;;;10.10;99.90;;;;;;4993740;28;20104;-31
2021/12/13 01:50:17;;;;;;;24.73;14.43;;;10.20;99.90;;;;;;5009530;28;20050;-31
2021/12/13 01:52:46;;;;;;;22.93;14.37;;;10.20;99.90;;;;;;5008997;28;20435;-31
2021/12/13 01:55:23;;;;;;;26.60;14.80;;;10.20;99.90;;;;;;5009452;28;20089;-31
2021/12/13 01:57:56;;;;;;;22.70;13.77;;;10.10;99.90;;;;;;4993432;28;20463;-30
2021/12/13 02:03:19;;;;;;;27.77;15.33;;;10.20;99.90;;;;;;5008640;28;20524;-31
2021/12/13 02:05:48;;;;;;;30.00;15.60;;;10.20;99.90;;;;;;5027340;28;20049;-31
2021/12/13 02:08:17;;;;;;;31.40;16.80;;;10.20;99.90;;;;;;5013119;28;20128;-31
2021/12/13 02:10:47;;;;;;;31.10;17.17;;;10.20;99.90;;;;;;5029218;28;20377;-31
2021/12/13 02:13:20;;;;;;;32.37;17.73;;;10.20;99.90;;;;;;5028123;28;20500;-31
2021/12/13 02:18:38;;;;;;;39.50;19.07;;;10.20;99.90;;;;;;5018817;28;20125;-31
2021/12/13 02:21:10;;;;;;;37.17;19.85;;;10.20;99.90;;;;;;5029026;28;20061;-31
2021/12/13 02:23:40;;;;;;;43.73;20.80;;;10.20;99.90;;;;;;5026683;28;20521;-31
2021/12/13 02:26:07;;;;;;;47.67;22.67;;;10.20;99.90;;;;;;5007526;28;20504;-31
2021/12/13 02:28:38;;;;;;;47.07;22.50;;;10.20;99.90;;;;;;5018771;28;20084;-31
2021/12/13 02:31:19;;;;;;;53.05;23.42;;;10.20;99.90;;;;;;5027337;28;20077;-31
2021/12/13 02:33:53;;;;;;;44.13;22.02;;;10.30;99.90;;;;;;5027837;28;20045;-31
2021/12/13 02:36:27;;;;;;;51.20;23.30;;;10.30;99.90;;;;;;5017099;28;20053;-32
2021/12/13 02:38:58;;;;;;;47.57;23.13;;;10.20;99.90;;;;;;5006465;28;20509;-31
2021/12/13 02:41:26;;;;;;;;;;;10.20;99.90;;;;;;5009406;28;20453;-31
2021/12/13 02:43:56;;;;;;;50.67;22.47;;;10.20;99.90;;;;;;5008105;28;19944;-31
2021/12/13 02:46:23;;;;;;;51.22;22.00;;;10.20;99.90;;;;;;4996362;28;20084;-31
2021/12/13 02:48:54;;;;;;;51.20;21.67;;;10.20;99.90;;;;;;5004848;28;20044;-30
2021/12/13 02:51:38;;;;;;;46.33;21.40;;;10.20;99.90;;;;;;5008962;28;20137;-31
2021/12/13 02:54:06;;;;;;;42.17;21.23;;;10.10;99.90;;;;;;5007634;28;20463;-31
2021/12/13 02:56:37;;;;;;;46.17;21.13;;;10.10;99.90;;;;;;4994724;28;20041;-31
2021/12/13 02:59:05;;;;;;;42.80;19.65;;;10.10;99.90;;;;;;5006071;28;20080;-30
2021/12/13 03:01:44;;;;;;;55.03;19.90;;;10.10;99.90;;;;;;5010675;28;20046;-31
2021/12/13 03:04:15;;;;;;;43.30;19.90;;;10.10;99.90;;;;;;5010508;28;20045;-31
2021/12/13 03:06:56;;;;;;;45.90;17.73;;;10.10;99.90;;;;;;5014264;28;20033;-31
2021/12/13 03:09:24;;;;;;;;;;;10.10;99.90;;;;;;5027399;28;20107;-31
2021/12/13 03:11:52;;;;;;;39.37;16.97;;;10.10;99.90;;;;;;5028257;28;20254;-31
2021/12/13 03:14:42;;;;;;;39.53;17.03;;;10.00;99.90;;;;;;5025957;28;20045;-31
2021/12/13 03:17:35;;;;;;;37.70;17.83;;;10.10;99.90;;;;;;5011943;28;20045;-31
2021/12/13 03:20:15;;;;;;;40.97;18.33;;;10.00;99.90;;;;;;5027666;28;20084;-31
2021/12/13 03:23:10;;;;;;;41.80;17.73;;;10.00;99.90;;;;;;5026118;28;20049;-31
2021/12/13 03:26:01;;;;;;;43.27;17.67;;;10.00;99.90;;;;;;5026059;28;20136;-31
2021/12/13 03:29:04;;;;;;;40.60;16.20;;;10.00;99.90;;;;;;5011775;28;20061;-31
2021/12/13 03:31:42;;;;;;;39.60;17.33;;;10.00;99.90;;;;;;5026186;28;20060;-31
2021/12/13 03:34:11;;;;;;;36.43;17.07;;;10.00;99.90;;;;;;5027194;28;20139;-31
2021/12/13 03:36:56;;;;;;;37.57;17.07;;;10.10;99.90;;;;;;5011158;28;20056;-32
2021/12/13 03:39:32;;;;;;;38.77;18.00;;;10.00;99.90;;;;;;5008234;28;20132;-31
2021/12/13 03:42:04;;;;;;;41.93;17.27;;;10.00;99.90;;;;;;5007512;28;20425;-31
2021/12/13 03:44:37;;;;;;;39.40;16.97;;;10.10;99.90;;;;;;5006213;28;20425;-31
2021/12/13 03:47:12;;;;;;;44.63;17.13;;;10.00;99.90;;;;;;4990638;28;20038;-36
2021/12/13 03:49:48;;;;;;;33.10;15.77;;;9.80;99.90;;;;;;5007906;28;20046;-31
2021/12/13 03:52:17;;;;;;;39.40;15.33;;;9.90;99.90;;;;;;5005622;28;20073;-31
2021/12/13 03:54:44;;;;;;;29.93;14.20;;;9.90;99.90;;;;;;5008422;28;20510;-31
2021/12/13 03:57:12;;;;;;;34.83;14.57;;;9.90;99.90;;;;;;5011759;28;20124;-31
2021/12/13 03:59:40;;;;;;;27.90;13.40;;;9.90;99.90;;;;;;5027786;28;20049;-31
2021/12/13 04:02:11;;;;;;;28.23;12.00;;;10.00;99.90;;;;;;5026977;28;20078;-31
2021/12/13 04:04:42;;;;;;;;;;;9.90;99.90;;;;;;5028130;28;20040;-31
2021/12/13 04:07:18;;;;;;;28.53;11.27;;;9.90;99.90;;;;;;5012040;28;19921;-31
2021/12/13 04:09:47;;;;;;;25.57;10.90;;;9.80;99.90;;;;;;5027692;28;20285;-31
2021/12/13 04:12:15;;;;;;;20.20;8.70;;;9.90;99.90;;;;;;5025594;28;20049;-30
2021/12/13 04:14:49;;;;;;;25.67;9.50;;;9.80;99.90;;;;;;5026261;28;20569;-31
2021/12/13 04:20:31;;;;;;;25.40;8.70;;;9.80;99.90;;;;;;5034968;28;20065;-31
2021/12/13 04:23:12;;;;;;;22.97;8.10;;;9.80;99.90;;;;;;5029059;28;20045;-31
2021/12/13 04:25:42;;;;;;;15.48;7.50;;;9.80;99.90;;;;;;5030976;28;20046;-31
2021/12/13 04:28:19;;;;;;;19.30;7.97;;;9.80;99.90;;;;;;5014891;28;20041;-31
2021/12/13 04:30:53;;;;;;;19.27;7.53;;;9.80;99.90;;;;;;5029293;28;20069;-31
2021/12/13 04:33:38;;;;;;;16.93;6.97;;;9.80;99.90;;;;;;5030416;28;20045;-31
2021/12/13 04:36:21;;;;;;;16.50;6.50;;;9.80;99.90;;;;;;5028551;28;20056;-31
2021/12/13 04:38:57;;;;;;;19.77;7.10;;;9.80;99.90;;;;;;5010121;28;20068;-31
2021/12/13 04:41:40;;;;;;;13.87;6.53;;;9.80;99.90;;;;;;5010979;28;20644;-31
2021/12/13 04:44:28;;;;;;;15.63;5.93;;;9.80;99.90;;;;;;5024794;28;20052;-31
2021/12/13 04:46:55;;;;;;;11.17;5.47;;;9.80;99.90;;;;;;5013859;28;20132;-31
2021/12/13 04:49:23;;;;;;;15.20;5.07;;;9.80;99.90;;;;;;5029842;28;20049;-31
2021/12/13 04:51:59;;;;;;;10.47;5.10;;;9.80;99.90;;;;;;5030604;28;20447;-31
2021/12/13 04:54:29;;;;;;;12.77;4.43;;;9.80;99.90;;;;;;5029929;28;20053;-31
2021/12/13 04:56:58;;;;;;;11.13;4.50;;;9.70;99.90;;;;;;5015171;28;20619;-31
2021/12/13 04:59:25;;;;;;;11.77;4.70;;;9.80;99.90;;;;;;5029652;28;20483;-31
2021/12/13 05:01:54;;;;;;;11.53;4.13;;;9.70;99.90;;;;;;5027920;28;20077;-31
2021/12/13 05:04:22;;;;;;;9.63;3.93;;;9.70;99.90;;;;;;5028537;28;20045;-31
2021/12/13 05:06:49;;;;;;;15.30;4.53;;;9.70;99.90;;;;;;5014661;28;20045;-31
2021/12/13 05:09:19;;;;;;;7.63;3.93;;;9.70;99.90;;;;;;5029336;28;20064;-31
2021/12/13 05:11:49;;;;;;;10.43;3.40;;;9.70;99.90;;;;;;5030876;28;20053;-31
2021/12/13 05:14:16;;;;;;;8.40;3.05;;;9.70;99.90;;;;;;5028085;28;20081;-30
2021/12/13 05:16:50;;;;;;;9.43;3.60;;;9.70;99.90;;;;;;5016647;28;20037;-31
2021/12/13 05:19:35;;;;;;;7.13;3.20;;;9.70;99.90;;;;;;5027515;28;20292;-31
2021/12/13 05:22:03;;;;;;;9.80;3.30;;;9.70;99.90;;;;;;5030458;28;20049;-31
2021/12/13 05:24:41;;;;;;;10.60;3.33;;;9.70;99.90;;;;;;5028093;28;20523;-31
2021/12/13 05:27:12;;;;;;;8.63;3.10;;;9.70;99.90;;;;;;5013385;28;20042;-31
2021/12/13 05:29:49;;;;;;;10.60;3.50;;;9.70;99.90;;;;;;5029981;28;20172;-31
2021/12/13 05:32:26;;;;;;;9.10;3.17;;;9.70;99.90;;;;;;5029174;28;20060;-30
2021/12/13 05:35:01;;;;;;;8.60;3.77;;;9.60;99.90;;;;;;5027367;28;20049;-31
2021/12/13 05:38:03;;;;;;;11.03;4.33;;;9.60;99.90;;;;;;5007400;28;20381;-31
2021/12/13 05:40:29;;;;;;;6.50;3.83;;;9.60;99.90;;;;;;5006833;28;20053;-31
2021/12/13 05:42:58;;;;;;;8.67;4.50;;;9.70;99.90;;;;;;5013792;28;20048;-31
2021/12/13 05:45:49;;;;;;;9.67;4.73;;;9.60;99.90;;;;;;5029551;28;20053;-31
2021/12/13 05:48:23;;;;;;;11.70;6.77;;;9.60;99.90;;;;;;5013416;28;20049;-31
2021/12/13 05:50:53;;;;;;;11.57;5.60;;;9.60;99.90;;;;;;5029587;28;20355;-31
2021/12/13 05:53:30;;;;;;;8.50;4.90;;;9.60;99.90;;;;;;5028797;28;20053;-31
2021/12/13 05:55:59;;;;;;;7.40;5.30;;;9.60;99.90;;;;;;5028473;28;20365;-31
2021/12/13 05:58:39;;;;;;;10.30;4.87;;;9.60;99.90;;;;;;5011684;28;20391;-31
2021/12/13 06:01:12;;;;;;;11.37;5.53;;;9.60;99.90;;;;;;5029316;28;20150;-31
2021/12/13 06:03:42;;;;;;;8.17;4.87;;;9.60;99.90;;;;;;5028416;28;20060;-31
2021/12/13 06:06:15;;;;;;;12.93;6.10;;;9.60;99.90;;;;;;5021745;28;20064;-31
2021/12/13 06:08:46;;;;;;;11.07;5.77;;;9.50;99.90;;;;;;5022625;28;20303;-31
2021/12/13 06:11:19;;;;;;;12.45;5.80;;;9.50;99.90;;;;;;5029469;28;20135;-31
2021/12/13 06:13:46;;;;;;;11.97;6.97;;;9.60;99.90;;;;;;5027975;28;20076;-31
2021/12/13 06:16:24;;;;;;;13.97;7.40;;;9.50;99.90;;;;;;5020042;28;20049;-31
2021/12/13 06:19:06;;;;;;;13.60;7.33;;;9.50;99.90;;;;;;5024780;28;20312;-31
2021/12/13 06:21:58;;;;;;;14.07;6.90;;;9.50;99.90;;;;;;5009361;28;20053;-30
2021/12/13 06:24:30;;;;;;;13.23;7.13;;;9.50;99.90;;;;;;5020870;28;20056;-30
2021/12/13 06:27:07;;;;;;;13.73;7.10;;;9.50;99.90;;;;;;5013943;28;20277;-31
2021/12/13 06:29:50;;;;;;;14.77;8.50;;;9.50;99.90;;;;;;5027899;28;20124;-31
2021/12/13 06:32:28;;;;;;;13.70;7.50;;;9.50;99.90;;;;;;5028667;28;20427;-31
2021/12/13 06:34:54;;;;;;;16.13;8.80;;;9.40;99.90;;;;;;5027657;28;20511;-31
2021/12/13 06:37:31;;;;;;;16.43;8.93;;;9.50;99.90;;;;;;5007550;28;20041;-31
2021/12/13 06:40:16;;;;;;;14.50;7.80;;;9.40;99.90;;;;;;5008353;28;20049;-30
2021/12/13 06:42:42;;;;;;;11.93;7.60;;;9.40;99.90;;;;;;5008167;28;20459;-31
2021/12/13 06:45:25;;;;;;;16.13;7.83;;;9.40;99.90;;;;;;5008908;28;20129;-31
2021/12/13 06:47:53;;;;;;;16.30;8.03;;;9.50;99.90;;;;;;4993168;28;20049;-31
2021/12/13 06:50:30;;;;;;;14.57;9.13;;;9.50;99.90;;;;;;5008681;28;20042;-31
2021/12/13 06:53:10;;;;;;;16.00;9.10;;;9.50;99.90;;;;;;5006853;28;20046;-31
2021/12/13 06:55:36;;;;;;;15.50;9.30;;;9.40;99.90;;;;;;5008620;28;20057;-31
2021/12/13 06:58:19;;;;;;;16.27;10.10;;;9.40;99.90;;;;;;4992467;28;20409;-30
2021/12/13 07:00:47;;;;;;;18.63;9.07;;;9.40;99.90;;;;;;5016368;28;20091;-31
2021/12/13 07:03:34;;;;;;;14.53;9.63;;;9.40;99.90;;;;;;5027273;28;20493;-31
2021/12/13 07:06:04;;;;;;;16.33;9.57;;;9.40;99.90;;;;;;5027132;28;20128;-31
2021/12/13 07:08:35;;;;;;;16.73;9.83;;;9.40;99.90;;;;;;5012022;28;20059;-30
2021/12/13 07:11:07;;;;;;;14.15;7.75;;;9.40;99.90;;;;;;5028608;28;20116;-31
2021/12/13 07:13:35;;;;;;;17.70;10.00;;;9.30;99.90;;;;;;5027421;28;20069;-31
2021/12/13 07:16:06;;;;;;;18.30;9.50;;;9.40;99.90;;;;;;5028315;28;20049;-31
2021/12/13 07:19:01;;;;;;;16.80;11.32;;;9.40;99.90;;;;;;5014740;28;20132;-30
2021/12/13 07:21:34;;;;;;;19.70;10.47;;;9.40;99.90;;;;;;5008370;28;20104;-30
2021/12/13 07:24:09;;;;;;;17.07;10.23;;;9.30;99.90;;;;;;5015809;28;20595;-31
2021/12/13 07:26:40;;;;;;;15.23;9.83;;;9.40;99.90;;;;;;5013530;28;20091;-31
2021/12/13 07:29:13;;;;;;;16.55;10.75;;;9.30;99.90;;;;;;5025569;28;20049;-30
2021/12/13 07:31:42;;;;;;;16.90;9.60;;;9.30;99.90;;;;;;5027972;28;20171;-31
2021/12/13 07:34:19;;;;;;;15.30;9.53;;;9.30;99.90;;;;;;5026423;28;20045;-31
2021/12/13 07:36:58;;;;;;;13.83;9.67;;;9.30;99.90;;;;;;5008163;28;20156;-30
2021/12/13 07:39:27;;;;;;;13.50;9.37;;;9.30;99.90;;;;;;5017752;28;20053;-31
2021/12/13 07:41:57;;;;;;;15.53;10.00;;;9.50;99.90;;;;;;5021007;28;20527;-31
2021/12/13 07:44:41;;;;;;;22.50;10.37;;;9.30;99.90;;;;;;5023776;28;20045;-31
2021/12/13 07:47:24;;;;;;;21.27;10.50;;;9.30;99.90;;;;;;5009535;28;20037;-31
2021/12/13 07:49:58;;;;;;;16.70;10.17;;;9.30;99.90;;;;;;5027415;28;20049;-31
2021/12/13 07:52:42;;;;;;;19.20;11.27;;;9.30;99.90;;;;;;5030387;28;20049;-31
2021/12/13 07:55:22;;;;;;;18.13;10.80;;;9.30;99.90;;;;;;5030798;28;20103;-30
2021/12/13 07:57:48;;;;;;;18.90;10.93;;;9.30;99.90;;;;;;5014759;28;20128;-31
2021/12/13 08:00:24;;;;;;;17.17;11.70;;;9.30;99.90;;;;;;5031233;28;20049;-31
2021/12/13 08:03:03;;;;;;;20.77;12.00;;;9.30;99.90;;;;;;5031129;28;20072;-31
2021/12/13 08:05:38;;;;;;;19.00;11.37;;;9.30;99.90;;;;;;5030997;28;20034;-31
2021/12/13 08:08:06;;;;;;;19.33;12.20;;;9.30;99.90;;;;;;5012644;28;20073;-31
2021/12/13 08:10:38;;;;;;;20.27;12.60;;;9.30;99.90;;;;;;5028397;28;20504;-31
2021/12/13 08:13:17;;;;;;;21.43;12.57;;;9.30;99.90;;;;;;5029542;28;20127;-31
2021/12/13 08:15:48;;;;;;;19.30;13.23;;;9.30;99.90;;;;;;5029920;28;20389;-31
2021/12/13 08:18:19;;;;;;;20.80;13.97;;;9.30;99.90;;;;;;5013264;28;20753;-31
2021/12/13 08:20:53;;;;;;;17.90;13.10;;;9.30;99.90;;;;;;5029191;28;20065;-31
2021/12/13 08:23:35;;;;;;;20.80;13.80;;;9.30;99.90;;;;;;5019038;28;20041;-31
2021/12/13 08:26:04;;;;;;;20.67;14.40;;;9.40;99.90;;;;;;5029476;28;20492;-31
2021/12/13 08:28:53;;;;;;;22.47;14.57;;;9.30;99.90;;;;;;5013334;28;20076;-31
2021/12/13 08:31:28;;;;;;;21.67;14.63;;;9.30;99.90;;;;;;5029319;28;20045;-31
2021/12/13 08:34:03;;;;;;;21.37;13.90;;;9.30;99.90;;;;;;5028881;28;20068;-31
2021/12/13 08:36:42;;;;;;;22.40;14.93;;;9.40;99.90;;;;;;5016051;28;20405;-30
2021/12/13 08:39:09;;;;;;;23.27;15.07;;;9.30;99.90;;;;;;5023926;28;20100;-30
2021/12/13 08:42:00;;;;;;;23.23;15.77;;;9.30;99.90;;;;;;5029478;28;20524;-31
2021/12/13 08:44:36;;;;;;;22.73;15.83;;;9.40;99.90;;;;;;5028578;28;20500;-31
2021/12/13 08:47:07;;;;;;;25.70;16.27;;;9.40;99.90;;;;;;4997071;28;20729;-31
2021/12/13 08:49:38;;;;;;;22.60;15.95;;;9.40;99.90;;;;;;5028026;28;20068;-30
2021/12/13 08:52:15;;;;;;;26.52;17.55;;;9.40;99.90;;;;;;5026026;28;20041;-33
2021/12/13 08:54:48;;;;;;;26.57;17.30;;;9.40;99.90;;;;;;5028671;28;20269;-30
2021/12/13 08:57:54;;;;;;;24.27;17.70;;;9.30;99.90;;;;;;5013242;28;20064;-31
2021/12/13 09:00:30;;;;;;;26.13;17.97;;;9.40;99.90;;;;;;5027229;28;20056;-31
2021/12/13 09:03:13;;;;;;;23.53;17.33;;;9.40;99.90;;;;;;5027064;28;20080;-31
2021/12/13 09:05:56;;;;;;;25.40;19.03;;;9.50;99.90;;;;;;5028908;28;20045;-31
2021/12/13 09:08:41;;;;;;;25.77;17.80;;;9.50;99.90;;;;;;5012501;28;20041;-31
2021/12/13 09:11:10;;;;;;;26.53;17.47;;;9.40;99.90;;;;;;5012886;28;20481;-31
2021/12/13 09:13:48;;;;;;;25.33;17.90;;;9.40;99.90;;;;;;5026459;28;20077;-30
2021/12/13 09:16:20;;;;;;;23.23;17.97;;;9.50;99.90;;;;;;5019835;28;20048;-31
2021/12/13 09:19:02;;;;;;;23.87;17.77;;;9.50;99.90;;;;;;5023496;28;20053;-30
2021/12/13 09:21:28;;;;;;;23.70;18.20;;;9.50;99.90;;;;;;5027220;28;20048;-30
2021/12/13 09:23:54;;;;;;;24.00;18.30;;;9.50;99.90;;;;;;5025438;28;20053;-31
2021/12/13 09:26:24;;;;;;;28.43;18.90;;;9.50;99.90;;;;;;5017619;28;20053;-31
2021/12/13 09:29:01;;;;;;;27.87;19.57;;;9.50;99.90;;;;;;5024679;28;20049;-31
2021/12/13 09:31:34;;;;;;;28.30;19.10;;;9.50;99.90;;;;;;5028674;28;20080;-31
2021/12/13 09:34:15;;;;;;;26.40;18.47;;;9.50;99.90;;;;;;5027389;28;20132;-31
2021/12/13 09:36:44;;;;;;;24.77;18.57;;;9.50;99.90;;;;;;5012360;28;20049;-30
2021/12/13 09:39:16;;;;;;;29.27;18.63;;;9.50;99.90;;;;;;5027364;28;20064;-30
2021/12/13 09:42:05;;;;;;;25.50;18.40;;;9.60;99.90;;;;;;5028177;28;20055;-31
2021/12/13 09:44:42;;;;;;;25.33;18.03;;;9.60;99.90;;;;;;5027217;28;20076;-31
2021/12/13 09:47:29;;;;;;;28.40;17.90;;;9.60;99.90;;;;;;5012137;28;20049;-31
2021/12/13 09:49:55;;;;;;;29.37;17.80;;;9.70;99.90;;;;;;5028598;28;20112;-30
2021/12/13 09:52:36;;;;;;;26.40;17.57;;;9.60;99.90;;;;;;5027845;28;20144;-31
2021/12/13 09:55:09;;;;;;;24.52;17.40;;;9.60;99.90;;;;;;5027356;28;20119;-31
2021/12/13 09:57:53;;;;;;;24.20;16.33;;;9.60;99.90;;;;;;5011792;28;20053;-31
2021/12/13 10:00:35;;;;;;;24.70;17.27;;;9.60;99.90;;;;;;5026826;28;20136;-31
2021/12/13 10:03:03;;;;;;;;;;;9.60;99.90;;;;;;5019651;28;20076;-31
2021/12/13 10:05:36;;;;;;;24.00;16.03;;;9.60;99.90;;;;;;5027088;28;19931;-31
2021/12/13 10:08:19;;;;;;;21.00;16.03;;;9.60;99.90;;;;;;5010284;28;20045;-31
2021/12/13 10:10:56;;;;;;;23.20;15.93;;;9.60;99.90;;;;;;5027409;28;20286;-31
2021/12/13 10:13:29;;;;;;;21.30;15.53;;;9.60;99.90;;;;;;5027234;28;20535;-30
2021/12/13 10:16:08;;;;;;;21.23;15.50;;;9.60;99.90;;;;;;5025753;28;20111;-31
2021/12/13 10:18:37;;;;;;;25.27;15.73;;;9.60;99.90;;;;;;5013555;28;20053;-31
2021/12/13 10:21:17;;;;;;;22.97;16.00;;;9.70;99.90;;;;;;5027357;28;21087;-31
2021/12/13 10:23:50;;;;;;;21.50;15.50;;;9.70;99.90;;;;;;5016955;28;20413;-30
2021/12/13 10:26:17;;;;;;;19.33;14.77;;;9.70;99.90;;;;;;5014795;28;20049;-31
2021/12/13 10:28:55;;;;;;;25.20;16.20;;;9.70;99.90;;;;;;5021136;28;20116;-31
2021/12/13 10:31:38;;;;;;;19.47;15.47;;;9.70;99.90;;;;;;5023613;28;20056;-31
2021/12/13 10:34:09;;;;;;;21.13;15.13;;;9.70;99.90;;;;;;5026450;28;20061;-31
2021/12/13 10:36:36;;;;;;;18.60;14.33;;;9.70;99.90;;;;;;5012149;28;20045;-31
2021/12/13 10:39:10;;;;;;;21.57;14.50;;;9.70;99.90;;;;;;5017768;28;20493;-31
2021/12/13 10:41:42;;;;;;;18.40;14.00;;;9.70;99.90;;;;;;5025411;28;20053;-31
2021/12/13 10:44:14;;;;;;;21.27;13.83;;;9.80;99.90;;;;;;5025883;28;20092;-31
2021/12/13 10:46:45;;;;;;;22.50;13.73;;;9.70;99.90;;;;;;5012750;28;20056;-31
2021/12/13 10:49:18;;;;;;;18.88;13.65;;;9.80;99.90;;;;;;5025501;28;20048;-31
2021/12/13 10:51:54;;;;;;;19.27;13.97;;;9.80;99.90;;;;;;5027070;28;20120;-31
2021/12/13 10:54:24;;;;;;;20.33;13.20;;;9.80;99.90;;;;;;5025521;28;20096;-30
2021/12/13 10:57:08;;;;;;;21.33;14.67;;;9.80;99.90;;;;;;5011638;28;20041;-31
2021/12/13 10:59:34;;;;;;;18.73;14.10;;;9.80;99.90;;;;;;5025200;28;20045;-31
2021/12/13 11:02:07;;;;;;;18.30;13.57;;;9.80;99.90;;;;;;5026646;28;20051;-31
2021/12/13 11:04:47;;;;;;;20.13;14.10;;;9.80;99.90;;;;;;4969622;28;21031;-31
2021/12/13 11:07:13;;;;;;;21.83;13.93;;;9.80;99.90;;;;;;4995430;28;20425;-31
2021/12/13 11:09:42;;;;;;;20.93;14.77;;;9.80;99.90;;;;;;5015170;28;20049;-31
2021/12/13 11:12:15;;;;;;;18.63;14.30;;;9.80;99.90;;;;;;5009971;28;20103;-31
2021/12/13 11:14:43;;;;;;;22.00;13.90;;;9.80;99.90;;;;;;5014703;28;20049;-30
2021/12/13 11:17:15;;;;;;;17.70;14.23;;;9.80;99.90;;;;;;5001977;28;20048;-31
2021/12/13 11:19:47;;;;;;;23.42;14.25;;;9.80;99.90;;;;;;5015202;28;20896;-31
2021/12/13 11:22:17;;;;;;;19.20;13.90;;;9.80;99.90;;;;;;5017736;28;20115;-31
2021/12/13 11:24:46;;;;;;;19.27;14.18;;;9.80;99.90;;;;;;5021423;28;20481;-31
2021/12/13 11:27:22;;;;;;;20.87;13.27;;;9.90;99.90;;;;;;4999305;28;20655;-30
2021/12/13 11:29:51;;;;;;;23.33;14.00;;;9.80;99.90;;;;;;5018145;28;20041;-31
2021/12/13 11:32:38;;;;;;;17.97;13.43;;;9.90;99.90;;;;;;5017036;28;20041;-31
2021/12/13 11:35:06;;;;;;;19.93;13.77;;;9.90;99.90;;;;;;5017301;28;21198;-31
2021/12/13 11:37:58;;;;;;;20.70;14.70;;;9.90;99.90;;;;;;5003170;28;20037;-31
2021/12/13 11:41:10;;;;;;;21.13;14.00;;;9.90;99.90;;;;;;5014657;28;20509;-31
2021/12/13 11:43:49;;;;;;;;;;;9.90;99.90;;;;;;5018253;28;20055;-31
2021/12/13 11:46:45;;;;;;;20.30;13.80;;;9.90;99.90;;;;;;5007259;28;19929;-31
2021/12/13 11:49:27;;;;;;;20.43;14.20;;;9.90;99.90;;;;;;5011948;28;20046;-31
2021/12/13 11:52:11;;;;;;;;;;;10.00;99.90;;;;;;5015022;28;20474;-31
2021/12/13 11:54:49;;;;;;;19.27;13.97;;;10.00;99.90;;;;;;5016117;28;19929;-31
2021/12/13 11:57:46;;;;;;;23.90;14.27;;;9.90;99.90;;;;;;4999927;28;20049;-30
2021/12/13 12:00:47;;;;;;;21.93;14.27;;;10.00;99.90;;;;;;5014139;28;20050;-31
2021/12/13 12:03:43;;;;;;;20.67;13.80;;;10.10;99.90;;;;;;5011788;28;20050;-31
2021/12/13 12:06:40;;;;;;;21.67;14.40;;;10.10;99.90;;;;;;5008241;28;20085;-31
2021/12/13 12:09:51;;;;;;;20.43;14.20;;;10.10;99.90;;;;;;5015188;28;20085;-31
2021/12/13 12:12:45;;;;;;;21.63;14.50;;;10.10;99.90;;;;;;5019892;28;20048;-31
2021/12/13 12:15:12;;;;;;;26.20;14.87;;;10.00;99.90;;;;;;5016991;28;20053;-31
2021/12/13 12:17:38;;;;;;;21.67;15.03;;;10.00;99.90;;;;;;4994821;28;20056;-31
2021/12/13 12:20:31;;;;;;;23.30;15.17;;;10.00;99.90;;;;;;5015726;28;20312;-31
2021/12/13 12:23:01;;;;;;;26.43;16.20;;;10.00;99.90;;;;;;5017532;28;20489;-31
2021/12/13 12:25:30;;;;;;;25.63;16.20;;;10.00;99.90;;;;;;5019463;28;20061;-31
2021/12/13 12:28:06;;;;;;;27.67;15.80;;;10.00;99.90;;;;;;5007252;28;20056;-31
2021/12/13 12:30:41;;;;;;;24.47;16.27;;;10.00;99.90;;;;;;5016109;28;20481;-31
2021/12/13 12:33:10;;;;;;;22.73;15.60;;;10.00;99.90;;;;;;5013256;28;20037;-31
2021/12/13 12:35:47;;;;;;;24.13;15.63;;;10.00;99.90;;;;;;5019296;28;20533;-31
2021/12/13 12:38:51;;;;;;;24.77;15.60;;;9.90;99.90;;;;;;4998309;28;20049;-31
2021/12/13 12:41:43;;;;;;;22.30;15.33;;;9.90;99.90;;;;;;5027038;28;20041;-31
2021/12/13 12:44:17;;;;;;;24.90;15.30;;;10.00;99.90;;;;;;5026812;28;20049;-31
2021/12/13 12:46:43;;;;;;;22.47;14.60;;;10.00;99.90;;;;;;5008035;28;20037;-31
2021/12/13 12:49:19;;;;;;;22.03;14.60;;;9.80;99.90;;;;;;5018331;28;20115;-31
2021/12/13 12:51:46;;;;;;;23.47;14.73;;;9.90;99.90;;;;;;5019104;28;20555;-31
2021/12/13 12:54:15;;;;;;;20.33;13.83;;;10.00;99.90;;;;;;5017389;28;20053;-31
2021/12/13 12:56:41;;;;;;;20.93;13.60;;;10.00;99.90;;;;;;5006627;28;20045;-31
2021/12/13 12:59:43;;;;;;;21.70;13.77;;;9.90;99.90;;;;;;5015373;28;20049;-31
2021/12/13 13:02:12;;;;;;;19.40;12.50;;;9.90;99.90;;;;;;4998655;28;20208;-31
2021/12/13 13:04:45;;;;;;;23.83;13.57;;;9.90;99.90;;;;;;4991850;28;20132;-31
2021/12/13 13:07:17;;;;;;;19.70;12.70;;;10.00;99.90;;;;;;4987049;28;20053;-31
2021/12/13 13:09:48;;;;;;;22.17;12.95;;;9.90;99.90;;;;;;4994925;28;20100;-31
2021/12/13 13:12:33;;;;;;;21.35;13.07;;;9.90;99.90;;;;;;4994407;28;20096;-31
2021/12/13 13:15:17;;;;;;;22.17;13.40;;;10.00;99.90;;;;;;4995649;28;20162;-31
2021/12/13 13:17:46;;;;;;;26.10;14.40;;;10.00;99.90;;;;;;4979199;28;20501;-31
2021/12/13 13:20:26;;;;;;;22.83;14.13;;;10.00;99.90;;;;;;4995386;28;20615;-31
2021/12/13 13:22:54;;;;;;;24.07;13.57;;;10.00;99.90;;;;;;4992769;28;20046;-31
2021/12/13 13:25:29;;;;;;;24.73;14.33;;;10.00;99.90;;;;;;4995030;28;20042;-31
2021/12/13 13:27:57;;;;;;;23.60;13.80;;;10.00;99.90;;;;;;4981070;28;20042;-31
2021/12/13 13:30:31;;;;;;;24.17;14.23;;;10.00;99.90;;;;;;4994799;28;20053;-31
2021/12/13 13:32:57;;;;;;;21.97;13.73;;;10.00;99.90;;;;;;4995481;28;20846;-31
2021/12/13 13:35:23;;;;;;;18.73;12.77;;;10.10;99.90;;;;;;4996004;28;20124;-31
2021/12/13 13:37:49;;;;;;;20.27;13.57;;;10.10;99.90;;;;;;4982156;28;20045;-31